• Join FlightAware (Why Join?)
  • Login
  • US Flag 
11:34PM EDT


 

Airport Tracker/Info


-or-


 

Live Flight TrackerFlight Track Log ✈ JBU767 ✈ 10-Apr-2013 ✈ KMCO - TJPS / PSE

Flight Track Log - Related Links

Times and Time Zones

All times are in EDT time to prevent confusion due to time zone crossing. See the JBU767 flight status page for this flight to view local times or setup timezone preferences in your user account.

Time Position Orientation Groundspeed Altitude Reporting Facility
EDT Latitude Longitude Course Direction KTS MPH feet Rate Location/Type
11:27PM 28.4167 -81.3167 144° Southeast 167 192 800  Level Orlando TRACON
11:28PM 28.3667 -81.2833 150° Southeast 202 232 2,700 1,860 Climbing Orlando TRACON
11:29PM 28.1940 -80.9204 148° Southeast  Level Estimated
11:29PM 28.3500 -81.2167 106° East 261 300 4,900  Level Orlando TRACON
11:30PM 28.1153 -80.7912 146° Southeast  Level Estimated
11:30PM 28.3231 -81.1181 107° East 283 326 8,000  Level Miami Center
11:31PM 28.0365 -80.6622 149° Southeast  Level Estimated
11:31PM 28.3069 -81.0233 101° East 288 331 10,900  Level Miami Center
11:32PM 27.9575 -80.5335 144° Southeast  Level Estimated
11:32PM 28.2869 -80.9236 103° East 307 353 12,200  Level Miami Center
11:33PM 28.2458 -80.8231 115° Southeast 338 389 14,700 2,220 Climbing Miami Center
11:34PM 28.1644 -80.7542 143° Southeast 345 397 16,800 1,860 Climbing Miami Center
11:35PM 28.0806 -80.6831 143° Southeast 374 430 18,500 1,740 Climbing Miami Center
11:36PM 27.9889 -80.6072 144° Southeast 386 444 20,300 1,740 Climbing Miami Center
11:37PM 27.8989 -80.5314 143° Southeast 405 466 22,000 1,440 Climbing Miami Center
11:38PM 27.8111 -80.4581 144° Southeast 419 482 23,300 1,380 Climbing Miami Center
11:39PM 27.7128 -80.3728 142° Southeast 431 496 24,800 1,380 Climbing Miami Center
11:40PM 27.6319 -80.2672 131° Southeast 436 502 26,100 1,140 Climbing Miami Center
11:41PM 27.5617 -80.1433 123° Southeast 450 518 27,100 1,020 Climbing Miami Center
11:42PM 27.4894 -80.0172 123° Southeast 467 537 28,200 1,140 Climbing Miami Center
11:43PM 27.4089 -79.8794 123° Southeast 481 554 29,400 1,020 Climbing Miami Center
11:44PM 27.3322 -79.7489 123° Southeast 487 560 30,400 960 Climbing Miami Center
11:45PM 27.2614 -79.6303 124° Southeast 499 574 31,400 840 Climbing Miami Center
11:46PM 27.1844 -79.4975 123° Southeast 509 586 32,100 720 Climbing Miami Center
11:47PM 27.0972 -79.3508 124° Southeast 509 586 32,900 660 Climbing Miami Center
11:48PM 27.0203 -79.2142 122° Southeast 519 597 33,500 600 Climbing Miami Center
11:49PM 26.9344 -79.0772 125° Southeast 519 597 34,100 600 Climbing Miami Center
11:50PM 26.8467 -78.9406 126° Southeast 526 605 34,800 600 Climbing Miami Center
11:51PM 26.7608 -78.8017 125° Southeast 539 620 35,400 540 Climbing Miami Center
11:52PM 26.6769 -78.6656 125° Southeast 549 632 35,900 540 Climbing Miami Center
11:53PM 26.5950 -78.5411 126° Southeast 544 626 36,500 540 Climbing Miami Center
11:54PM 26.5067 -78.4050 126° Southeast 549 632 37,000 240 Climbing Miami Center
11:55PM 26.4161 -78.2625 125° Southeast 554 638 37,000  Level Miami Center
11:56PM 26.3256 -78.1244 126° Southeast 554 638 37,000  Level Miami Center
11:57PM 26.2369 -77.9778 124° Southeast 554 638 37,000  Level Miami Center
11:58PM 26.1481 -77.8381 125° Southeast 554 638 37,000  Level Miami Center
11:59PM 26.0569 -77.6983 126° Southeast 554 638 37,000  Level Miami Center
12:00AM 25.9678 -77.5567 125° Southeast 554 638 37,000  Level Miami Center
12:01AM 25.8847 -77.4317 126° Southeast 554 638 37,000  Level Miami Center
12:02AM 25.7869 -77.2811 126° Southeast 548 631 37,000  Level Miami Center
12:03AM 25.6956 -77.1400 126° Southeast 553 636 37,000  Level Miami Center
12:04AM 25.6058 -76.9994 125° Southeast 558 642 37,000  Level Miami Center
12:05AM 25.5117 -76.8589 127° Southeast 558 642 37,000  Level Miami Center
12:06AM 25.4197 -76.7183 126° Southeast 558 642 37,000  Level Miami Center
12:07AM 25.3275 -76.5806 127° Southeast 563 648 37,000  Level Miami Center
12:08AM 25.2353 -76.4406 126° Southeast 563 648 37,000  Level Miami Center
12:09AM 25.1428 -76.3033 127° Southeast 563 648 37,000  Level Miami Center
12:10AM 25.0525 -76.1636 125° Southeast 563 648 37,000  Level Miami Center
12:11AM 24.9619 -76.0289 127° Southeast 563 648 37,000  Level Miami Center
12:12AM 24.8586 -75.8808 128° Southeast 558 642 37,000  Level Miami Center
12:13AM 24.7678 -75.7419 126° Southeast 552 635 37,000  Level Miami Center
12:14AM 24.6747 -75.6056 127° Southeast 552 635 37,000  Level Miami Center
12:15AM 24.5836 -75.4672 126° Southeast 552 635 37,000  Level Miami Center
12:16AM 24.4903 -75.3311 127° Southeast 552 635 37,000  Level Miami Center
12:17AM 24.3967 -75.1931 127° Southeast 552 635 37,000  Level Miami Center
12:18AM 24.3053 -75.0597 127° Southeast 552 635 37,000  Level Miami Center
12:19AM 24.2139 -74.9222 126° Southeast 552 635 37,000  Level Miami Center
12:20AM 24.1200 -74.7869 127° Southeast 557 641 37,000  Level Miami Center
12:21AM 24.0283 -74.6519 127° Southeast 557 641 37,000  Level Miami Center
12:22AM 23.9342 -74.5172 127° Southeast 557 641 37,000  Level Miami Center
12:23AM 23.8400 -74.3828 127° Southeast 557 641 37,000  Level Miami Center
12:24AM 23.7481 -74.2483 127° Southeast 552 635 37,000  Level Miami Center
12:25AM 23.6514 -74.1119 128° Southeast 552 635 37,000  Level Miami Center
12:26AM 23.5550 -73.9758 128° Southeast 552 635 37,000  Level Miami Center
12:27AM 23.4733 -73.8578 127° Southeast 552 635 37,000  Level Miami Center
12:28AM 23.3806 -73.7242 127° Southeast 552 635 37,000  Level Miami Center
12:29AM 23.2881 -73.5908 127° Southeast 552 635 37,000  Level Miami Center
12:30AM 23.1911 -73.4578 128° Southeast 559 643 37,000  Level Miami Center
12:31AM 23.0961 -73.3225 127° Southeast 559 643 37,000  Level Miami Center
12:32AM 23.0031 -73.1875 127° Southeast 554 638 37,000  Level Miami Center
12:33AM 22.9100 -73.0569 128° Southeast 554 638 37,000  Level Miami Center
12:34AM 22.8144 -72.9203 127° Southeast 554 638 37,000  Level Miami Center
12:35AM 22.7192 -72.7903 128° Southeast 554 638 37,000  Level Miami Center
12:36AM 22.6256 -72.6539 127° Southeast 554 638 37,000  Level Miami Center
12:37AM 22.5300 -72.5197 128° Southeast 554 638 37,000  Level Miami Center
12:38AM 22.4322 -72.3861 128° Southeast 559 643 37,000  Level Miami Center
12:39AM 22.3386 -72.2569 128° Southeast 559 643 37,000  Level Miami Center
12:40AM 22.2425 -72.1233 128° Southeast 559 643 37,000  Level Miami Center
12:41AM 22.1467 -71.9903 128° Southeast 559 643 37,000  Level Miami Center
12:42AM 22.0525 -71.8594 128° Southeast 559 643 37,000  Level Miami Center
12:43AM 21.9564 -71.7267 128° Southeast 559 643 37,000  Level Miami Center
12:44AM 21.8600 -71.5939 128° Southeast 559 643 37,000  Level Miami Center
12:45AM 21.7636 -71.4639 129° Southeast 559 643 37,000  Level Miami Center
12:46AM 21.6692 -71.3336 128° Southeast 552 635 37,000  Level Miami Center
12:47AM 21.5769 -71.2036 127° Southeast 552 635 37,000  Level Miami Center
12:48AM 21.4714 -71.0589 128° Southeast 552 635 37,000  Level Miami Center
12:49AM 21.3703 -70.9253 129° Southeast 560 644 37,000  Level Miami Center
12:50AM 21.2736 -70.7983 129° Southeast 560 644 37,000  Level Miami Center
12:51AM 21.1769 -70.6714 129° Southeast 554 638 37,000  Level Miami Center
12:52AM 21.0842 -70.5469 129° Southeast 549 632 37,000  Level Miami Center
12:53AM 20.9892 -70.4181 128° Southeast 549 632 37,000  Level Miami Center
12:54AM 20.8922 -70.2919 129° Southeast 549 632 37,000  Level Miami Center
12:55AM 20.7972 -70.1636 128° Southeast 549 632 37,000  Level Miami Center
12:56AM 20.7042 -70.0394 129° Southeast 549 632 37,000  Level Miami Center
12:57AM 20.6069 -69.9139 130° Southeast 549 632 37,000  Level Miami Center
12:58AM 20.5117 -69.7861 129° Southeast 549 632 37,000  Level Miami Center
12:59AM 20.4164 -69.6606 129° Southeast 549 632 37,000  Level Miami Center
01:00AM 20.3231 -69.5353 128° Southeast 549 632 37,000  Level Miami Center
01:01AM 20.2297 -69.4122 129° Southeast 549 632 37,000  Level Miami Center
01:02AM 20.1319 -69.2872 130° Southeast 549 632 37,000  Level Miami Center
01:03AM 20.0344 -69.1628 130° Southeast 549 632 37,000  Level Miami Center
01:04AM 19.9408 -69.0403 129° Southeast 549 632 37,000  Level Miami Center
01:05AM 19.8472 -68.9158 129° Southeast 549 632 37,000  Level Miami Center
01:06AM 19.7514 -68.7894 129° Southeast 549 632 37,000  Level Miami Center
01:07AM 19.6556 -68.6675 130° Southeast 549 632 37,000  Level Miami Center
01:08AM 19.6000 -68.6000 131° Southeast 540 621 37,000  Level San Juan Center
01:09AM 19.5167 -68.4667 124° Southeast 550 633 37,000  Level San Juan Center
01:10AM 19.4167 -68.3500 132° Southeast 540 621 37,000  Level San Juan Center
01:11AM 19.3167 -68.2167 128° Southeast 540 621 37,000 -60 Level San Juan Center
01:12AM 19.2333 -68.1000 127° Southeast 540 621 36,900 -1,440 Descending San Juan Center
01:13AM 19.1333 -67.9667 128° Southeast 550 633 34,200 -2,580 Descending San Juan Center
01:14AM 19.0333 -67.8500 132° Southeast 540 621 31,700 -2,700 Descending San Juan Center
01:15AM 18.9333 -67.7333 132° Southeast 510 587 28,800 -2,520 Descending San Juan Center
01:16AM 18.8500 -67.6333 131° Southeast 470 541 26,700 -2,040 Descending San Juan Center
01:17AM 18.7500 -67.5500 142° Southeast 470 541 24,700 -2,040 Descending San Juan Center
01:18AM 18.6667 -67.4500 131° Southeast 450 518 22,700 -1,980 Descending San Juan Center
01:19AM 18.5833 -67.3667 137° Southeast 430 495 20,800 -1,860 Descending San Juan Center
01:20AM 18.5000 -67.2833 137° Southeast 410 472 19,000 -1,800 Descending San Juan Center
01:21AM 18.4000 -67.1833 136° Southeast 400 460 17,200 -1,860 Descending San Juan Center
01:22AM 18.3333 -67.1000 130° Southeast 380 437 15,300 -1,740 Descending San Juan Center
01:23AM 18.2500 -67.0333 143° Southeast 370 426 13,800 -1,560 Descending San Juan Center
01:24AM 18.1833 -66.9500 130° Southeast 350 403 12,200 -1,500 Descending San Juan Center
01:25AM 18.1167 -66.8833 136° Southeast 330 380 10,800 -1,440 Descending San Juan Center
01:26AM 18.0667 -66.8167 128° Southeast 290 334 9,400 -1,320 Descending San Juan Center
01:27AM 18.0000 -66.7667 144° Southeast 280 322 8,200 -1,200 Descending San Juan Center
01:28AM 17.9500 -66.7167 136° Southeast 270 311 7,000 -840 Descending San Juan Center
01:29AM 17.9000 -66.6500 128° Southeast 260 299 6,600 -420 Descending San Juan Center
01:30AM 17.8667 -66.5833 118° Southeast 270 311 6,200 -900 Descending San Juan Center
01:31AM 17.8500 -66.5167 105° East 270 311 4,900 -1,380 Descending San Juan Center
01:32AM 17.8500 -66.4500 90° East 240 276 3,500 -1,140 Descending San Juan Center
01:33AM 17.8833 -66.4000 55° Northeast 230 265 2,700 -420 Descending San Juan Center
01:34AM 17.9333 -66.4167 342° North 190 219 2,700 -420 Level San Juan Center
01:35AM 17.9667 -66.4500 316° Northwest 200 230 1,900 -840 Descending San Juan Center
01:37AM 18.0000 -66.5500 309° West  Level FlightAware Approximate